createdAt,value
2023-02-24T00:01:39.320Z,7.82
2023-02-24T00:06:38.656Z,5.55
2023-02-24T00:09:09.525Z,14.17
2023-02-24T00:11:39.638Z,8.10
2023-02-24T00:14:08.296Z,7.38
2023-02-24T00:16:38.623Z,8.63
2023-02-24T00:19:08.045Z,8.23
2023-02-24T00:21:36.181Z,9.40
2023-02-24T00:24:04.301Z,7.03
2023-02-24T00:26:32.218Z,9.52
2023-02-24T00:29:03.327Z,5.65
2023-02-24T00:31:31.943Z,7.22
2023-02-24T00:34:02.072Z,7.63
2023-02-24T00:36:33.669Z,7.45
2023-02-24T00:39:07.693Z,6.30
2023-02-24T00:41:36.466Z,9.93
2023-02-24T00:44:07.956Z,10.18
2023-02-24T00:46:37.522Z,5.57
2023-02-24T00:49:10.459Z,6.65
2023-02-24T00:51:40.407Z,8.63
2023-02-24T00:54:10.362Z,6.53
2023-02-24T00:56:38.376Z,8.38
2023-02-24T00:59:06.144Z,7.85
2023-02-24T01:01:35.097Z,9.38
2023-02-24T01:04:11.207Z,10.90
2023-02-24T01:06:43.413Z,11.05
2023-02-24T01:09:17.820Z,13.32
2023-02-24T01:12:04.890Z,11.77
2023-02-24T01:14:35.275Z,8.45
2023-02-24T01:17:03.560Z,9.40
2023-02-24T01:19:33.031Z,10.43
2023-02-24T01:22:04.171Z,9.45
2023-02-24T01:27:01.061Z,8.23
2023-02-24T01:29:29.081Z,6.50
2023-02-24T01:31:58.170Z,7.78
2023-02-24T01:34:27.428Z,8.98
2023-02-24T01:36:55.410Z,10.25
2023-02-24T01:39:25.942Z,14.00
2023-02-24T01:41:54.237Z,8.10
2023-02-24T01:45:14.066Z,9.65
2023-02-24T01:47:43.696Z,9.85
2023-02-24T01:50:15.341Z,10.15
2023-02-24T01:52:45.719Z,9.32
2023-02-24T01:55:20.837Z,11.45
2023-02-24T01:57:50.622Z,7.82
2023-02-24T02:00:38.441Z,9.40
2023-02-24T02:03:24.054Z,5.63
2023-02-24T02:05:59.345Z,7.60
2023-02-24T02:08:27.554Z,10.93
2023-02-24T02:11:03.273Z,11.07
2023-02-24T02:13:35.588Z,11.50
2023-02-24T02:16:42.169Z,8.75
2023-02-24T02:19:31.602Z,8.73
2023-02-24T02:22:29.162Z,5.82
2023-02-24T02:25:01.922Z,9.07
2023-02-24T02:27:49.755Z,11.45
2023-02-24T02:30:43.760Z,9.73
2023-02-24T02:33:42.191Z,11.45
2023-02-24T02:36:18.055Z,9.27
2023-02-24T02:38:54.088Z,9.55
2023-02-24T02:41:28.363Z,12.88
2023-02-24T02:44:07.411Z,8.30
2023-02-24T02:46:41.335Z,10.40
2023-02-24T02:49:17.477Z,9.18
2023-02-24T02:51:51.987Z,8.50
2023-02-24T02:54:28.126Z,14.35
2023-02-24T02:57:01.317Z,12.10
2023-02-24T02:59:32.192Z,10.27
2023-02-24T03:02:11.432Z,9.18
2023-02-24T03:04:43.246Z,11.35
2023-02-24T03:07:17.642Z,14.15
2023-02-24T03:09:50.807Z,9.82
2023-02-24T03:12:22.751Z,11.93
2023-02-24T03:14:56.669Z,10.32
2023-02-24T03:17:27.131Z,13.90
2023-02-24T03:20:01.777Z,10.05
2023-02-24T03:22:37.698Z,11.38
2023-02-24T03:25:06.917Z,9.73
2023-02-24T03:27:42.061Z,9.50
2023-02-24T03:30:17.004Z,12.10
2023-02-24T03:32:56.077Z,10.73
2023-02-24T03:35:27.240Z,8.05
2023-02-24T03:37:57.786Z,9.68
2023-02-24T03:40:33.651Z,8.23
2023-02-24T03:43:07.522Z,9.93
2023-02-24T03:45:39.818Z,8.05
2023-02-24T03:48:11.809Z,9.75
2023-02-24T03:50:40.917Z,7.72
2023-02-24T03:53:23.352Z,11.50
2023-02-24T03:56:00.482Z,10.02
2023-02-24T03:58:39.582Z,15.50
2023-02-24T04:01:13.287Z,8.15
2023-02-24T04:03:51.423Z,10.90
2023-02-24T04:06:23.361Z,10.32
2023-02-24T04:09:08.909Z,10.95
2023-02-24T04:11:41.391Z,13.13
2023-02-24T04:14:13.736Z,8.95
2023-02-24T04:16:49.142Z,6.60
2023-02-24T04:19:20.763Z,14.17
2023-02-24T04:21:49.676Z,7.60
2023-02-24T04:24:21.934Z,12.23
2023-02-24T04:26:52.231Z,13.18
2023-02-24T04:29:24.266Z,8.88
2023-02-24T04:31:59.121Z,10.38
2023-02-24T04:34:32.248Z,11.45
2023-02-24T04:37:02.248Z,14.27
2023-02-24T04:39:32.510Z,8.02
2023-02-24T04:42:01.548Z,15.87
2023-02-24T04:44:29.434Z,13.20
2023-02-24T04:46:58.152Z,17.65
2023-02-24T04:49:26.869Z,14.48
2023-02-24T04:51:57.074Z,15.00
2023-02-24T04:54:25.067Z,9.13
2023-02-24T04:56:54.180Z,10.52
2023-02-24T04:59:24.770Z,13.18
2023-02-24T05:01:53.389Z,14.23
2023-02-24T05:04:21.688Z,11.75
2023-02-24T05:06:52.808Z,9.55
2023-02-24T05:09:21.227Z,13.18
2023-02-24T05:11:51.213Z,11.95
2023-02-24T05:14:22.916Z,11.65
2023-02-24T05:16:50.776Z,10.70
2023-02-24T05:19:38.534Z,9.02
2023-02-24T05:22:09.848Z,15.40
2023-02-24T05:24:38.617Z,13.80
2023-02-24T05:27:07.073Z,17.75
2023-02-24T05:29:38.016Z,13.80
2023-02-24T05:32:10.381Z,12.77
2023-02-24T05:34:39.015Z,13.65
2023-02-24T05:37:10.816Z,10.43
2023-02-24T05:39:39.029Z,12.63
2023-02-24T05:42:07.531Z,8.27
2023-02-24T05:44:37.171Z,10.85
2023-02-24T05:47:05.608Z,10.10
2023-02-24T05:49:35.979Z,9.00
2023-02-24T05:52:08.823Z,10.68
2023-02-24T05:54:39.118Z,13.02
2023-02-24T05:57:11.535Z,11.83
2023-02-24T05:59:41.945Z,15.68
2023-02-24T06:02:12.393Z,10.13
2023-02-24T06:04:46.818Z,9.32
2023-02-24T06:10:04.811Z,11.73
2023-02-24T06:12:35.189Z,9.38
2023-02-24T06:15:07.757Z,8.48
2023-02-24T06:17:35.994Z,11.20
2023-02-24T06:20:13.310Z,9.23
2023-02-24T06:22:42.379Z,15.05
2023-02-24T06:25:12.319Z,8.25
2023-02-24T06:27:40.135Z,15.13
2023-02-24T06:30:11.317Z,12.95
2023-02-24T06:35:07.255Z,10.47
2023-02-24T06:37:35.806Z,12.90
2023-02-24T06:40:09.171Z,10.63
2023-02-24T06:42:39.217Z,10.70
2023-02-24T06:45:09.774Z,12.70
2023-02-24T06:47:37.629Z,13.90
2023-02-24T06:50:07.453Z,10.52
2023-02-24T06:52:36.303Z,10.57
2023-02-24T06:55:05.306Z,8.77
2023-02-24T06:57:34.388Z,8.82
2023-02-24T07:00:16.596Z,7.38
2023-02-24T07:02:45.767Z,9.82
2023-02-24T07:05:14.793Z,9.57
2023-02-24T07:07:45.951Z,9.68
2023-02-24T07:12:42.214Z,10.65
2023-02-24T07:15:13.652Z,12.13
2023-02-24T07:17:42.484Z,9.43
2023-02-24T07:20:25.116Z,9.70
2023-02-24T07:22:53.315Z,11.25
2023-02-24T07:25:33.271Z,11.55
2023-02-24T07:28:01.967Z,13.77
2023-02-24T07:30:33.145Z,10.07
2023-02-24T07:35:30.631Z,8.70
2023-02-24T07:38:02.127Z,11.35
2023-02-24T07:40:30.075Z,10.40
2023-02-24T07:42:57.847Z,11.97
2023-02-24T07:45:26.011Z,11.52
2023-02-24T07:47:53.898Z,8.43
2023-02-24T07:50:21.735Z,10.97
2023-02-24T07:52:51.682Z,10.17
2023-02-24T07:55:19.648Z,15.57
2023-02-24T07:57:48.730Z,8.25
2023-02-24T08:00:19.223Z,10.48
2023-02-24T08:02:49.610Z,9.27
2023-02-24T08:05:18.590Z,11.90
2023-02-24T08:07:49.744Z,10.02
2023-02-24T08:12:57.121Z,7.07
2023-02-24T08:15:33.713Z,12.27
2023-02-24T08:18:02.399Z,9.80
2023-02-24T08:20:36.131Z,13.47
2023-02-24T08:23:06.434Z,13.13
2023-02-24T08:25:38.472Z,9.60
2023-02-24T08:28:11.272Z,10.97
2023-02-24T08:30:45.094Z,10.30
2023-02-24T08:33:17.379Z,6.70
2023-02-24T08:35:45.623Z,11.23
2023-02-24T08:38:16.353Z,13.23
2023-02-24T08:40:55.004Z,16.25
2023-02-24T08:43:32.881Z,16.57
2023-02-24T08:46:04.558Z,8.90
2023-02-24T08:48:38.164Z,9.45
2023-02-24T08:51:10.491Z,9.95
2023-02-24T08:53:40.742Z,14.00
2023-02-24T08:56:13.075Z,8.13
2023-02-24T08:58:47.197Z,13.30
2023-02-24T09:01:24.121Z,13.82
2023-02-24T09:03:55.230Z,12.63
2023-02-24T09:06:26.431Z,12.68
2023-02-24T09:11:47.118Z,12.60
2023-02-24T09:14:26.741Z,8.73
2023-02-24T09:17:07.076Z,10.95
2023-02-24T09:19:57.458Z,12.30
2023-02-24T09:26:11.025Z,10.55
2023-02-24T09:28:48.637Z,8.37
2023-02-24T09:31:17.939Z,8.93
2023-02-24T09:33:50.974Z,12.57
2023-02-24T09:36:30.185Z,9.82
2023-02-24T09:39:14.384Z,10.30
2023-02-24T09:42:24.935Z,13.23
2023-02-24T09:44:57.275Z,11.73
2023-02-24T09:47:39.613Z,6.93
2023-02-24T09:50:32.966Z,15.17
2023-02-24T09:53:17.160Z,9.63
2023-02-24T09:56:03.699Z,13.85
2023-02-24T09:58:44.078Z,11.20
2023-02-24T10:01:30.921Z,13.40
2023-02-24T10:04:18.584Z,8.93
2023-02-24T10:06:50.643Z,9.55
2023-02-24T10:09:26.637Z,19.55
2023-02-24T10:12:04.037Z,10.40
2023-02-24T10:14:43.847Z,11.17
2023-02-24T10:17:24.010Z,11.70
2023-02-24T10:20:00.943Z,11.88
2023-02-24T10:22:40.470Z,8.57
2023-02-24T10:25:26.173Z,9.70
2023-02-24T10:28:04.823Z,9.98
2023-02-24T10:30:42.704Z,12.93
2023-02-24T10:33:25.372Z,16.27
2023-02-24T10:36:09.224Z,14.80
2023-02-24T10:38:40.709Z,11.05
2023-02-24T10:41:11.152Z,14.85
2023-02-24T10:43:45.793Z,10.60
2023-02-24T10:46:40.543Z,11.50
2023-02-24T10:49:16.564Z,11.25
2023-02-24T10:51:52.260Z,9.73
2023-02-24T10:54:44.771Z,11.10
2023-02-24T10:57:23.103Z,11.15
2023-02-24T11:00:18.718Z,13.48
2023-02-24T11:03:07.126Z,9.77
2023-02-24T11:06:05.202Z,11.38
2023-02-24T11:08:40.022Z,16.45
2023-02-24T11:11:25.323Z,8.48
2023-02-24T11:14:11.950Z,7.57
2023-02-24T11:17:03.040Z,9.10
2023-02-24T11:19:32.704Z,9.38
2023-02-24T11:22:08.804Z,8.20
2023-02-24T11:24:38.661Z,10.15
2023-02-24T11:27:07.675Z,9.63
2023-02-24T11:29:46.926Z,7.65
2023-02-24T11:32:33.913Z,7.10
2023-02-24T11:35:09.475Z,8.05
2023-02-24T11:37:43.442Z,8.30
2023-02-24T11:40:18.701Z,12.40
2023-02-24T11:42:51.457Z,7.25
2023-02-24T11:45:29.356Z,14.00
2023-02-24T11:48:03.176Z,7.20
2023-02-24T11:50:39.593Z,9.35
2023-02-24T11:53:19.364Z,7.32
2023-02-24T11:55:52.845Z,6.35
2023-02-24T11:58:26.471Z,7.82
2023-02-24T12:01:01.292Z,10.02
2023-02-24T12:03:36.297Z,8.32
2023-02-24T12:06:14.957Z,6.20
2023-02-24T12:08:50.548Z,7.15
2023-02-24T12:11:26.614Z,11.73
2023-02-24T12:14:00.715Z,4.70
2023-02-24T12:16:33.785Z,7.07
2023-02-24T12:19:06.436Z,9.18
2023-02-24T12:21:39.329Z,13.90
2023-02-24T12:24:12.795Z,7.13
2023-02-24T12:26:52.990Z,11.30
2023-02-24T12:29:42.279Z,8.43
2023-02-24T12:32:21.575Z,10.57
2023-02-24T12:35:03.410Z,8.10
2023-02-24T12:37:48.279Z,4.03
2023-02-24T12:40:28.108Z,6.68
2023-02-24T12:43:05.973Z,14.13
2023-02-24T12:45:44.214Z,8.52
2023-02-24T12:48:25.185Z,6.60
2023-02-24T12:50:59.541Z,8.07
2023-02-24T12:53:37.454Z,6.47
2023-02-24T12:56:16.586Z,6.75
2023-02-24T12:58:48.385Z,5.28
2023-02-24T13:01:24.833Z,7.45
2023-02-24T13:04:34.960Z,7.75
2023-02-24T13:07:13.248Z,9.20
2023-02-24T13:09:48.959Z,7.45
2023-02-24T13:12:27.153Z,7.78
2023-02-24T13:14:55.528Z,5.35
2023-02-24T13:17:26.942Z,6.88
2023-02-24T13:19:56.661Z,7.05
2023-02-24T13:22:27.896Z,5.22
2023-02-24T13:27:31.426Z,7.30
2023-02-24T13:30:01.180Z,6.50
2023-02-24T13:32:32.597Z,8.27
2023-02-24T13:35:02.702Z,3.72
2023-02-24T13:37:34.466Z,6.40
2023-02-24T13:40:16.330Z,6.18
2023-02-24T13:42:58.584Z,6.18
2023-02-24T13:45:29.060Z,10.35
2023-02-24T13:48:19.811Z,6.53
2023-02-24T13:51:05.516Z,5.13
2023-02-24T13:53:53.195Z,6.03
2023-02-24T13:56:38.302Z,8.82
2023-02-24T13:59:36.458Z,6.70
2023-02-24T14:02:12.724Z,7.13
2023-02-24T14:04:47.644Z,7.13
2023-02-24T14:07:21.488Z,6.45
2023-02-24T14:09:53.511Z,8.70
2023-02-24T14:12:25.522Z,7.15
2023-02-24T14:14:55.858Z,7.57
2023-02-24T14:17:28.373Z,12.27
2023-02-24T14:19:57.601Z,7.63
2023-02-24T14:22:25.482Z,11.18
2023-02-24T14:25:02.988Z,6.05
2023-02-24T14:27:31.031Z,5.30
2023-02-24T14:30:00.271Z,6.35
2023-02-24T14:32:29.510Z,9.13
2023-02-24T14:34:57.701Z,4.95
2023-02-24T14:37:29.364Z,6.60
2023-02-24T14:39:59.565Z,3.65
2023-02-24T14:42:29.163Z,5.47
2023-02-24T14:44:58.471Z,5.53
2023-02-24T14:47:29.295Z,4.22
2023-02-24T14:49:59.730Z,9.10
2023-02-24T14:52:36.858Z,5.80
2023-02-24T14:55:08.892Z,6.15
2023-02-24T14:57:41.232Z,6.25
2023-02-24T15:00:17.426Z,5.57
2023-02-24T15:02:51.541Z,7.65
2023-02-24T15:05:19.763Z,10.60
2023-02-24T15:07:51.339Z,9.23
2023-02-24T15:10:22.882Z,7.00
2023-02-24T15:15:23.550Z,3.95
2023-02-24T15:17:56.064Z,5.80
2023-02-24T15:20:34.010Z,5.55
2023-02-24T15:23:02.772Z,5.35
2023-02-24T15:25:42.453Z,5.40
2023-02-24T15:28:25.464Z,5.55
2023-02-24T15:31:05.792Z,4.25
2023-02-24T15:33:40.042Z,9.98
2023-02-24T15:36:12.802Z,6.28
2023-02-24T15:38:43.392Z,8.40
2023-02-24T15:41:12.662Z,6.15
2023-02-24T15:43:47.668Z,7.90
2023-02-24T15:46:17.654Z,5.30
2023-02-24T15:48:49.318Z,8.05
2023-02-24T15:51:23.417Z,6.80
2023-02-24T15:53:51.257Z,7.18
2023-02-24T15:56:19.334Z,5.75
2023-02-24T15:58:47.733Z,8.02
2023-02-24T16:01:15.950Z,5.93
2023-02-24T16:03:44.156Z,5.00
2023-02-24T16:06:19.800Z,7.55
2023-02-24T16:08:49.416Z,7.95
2023-02-24T16:11:22.360Z,8.57
2023-02-24T16:13:53.884Z,7.18
2023-02-24T16:16:23.305Z,5.63
2023-02-24T16:18:51.788Z,5.70
2023-02-24T16:21:21.212Z,5.95
2023-02-24T16:23:49.072Z,8.32
2023-02-24T16:26:18.872Z,7.32
2023-02-24T16:28:55.510Z,7.93
2023-02-24T16:31:23.945Z,7.95
2023-02-24T16:33:55.488Z,5.97
2023-02-24T16:36:28.007Z,6.93
2023-02-24T16:38:56.127Z,9.40
2023-02-24T16:41:24.116Z,6.15
2023-02-24T16:43:52.272Z,8.38
2023-02-24T16:46:22.871Z,4.38
2023-02-24T16:48:54.005Z,6.78
2023-02-24T16:51:22.793Z,5.03
2023-02-24T16:53:51.995Z,6.93
2023-02-24T16:56:20.137Z,5.80
2023-02-24T16:58:48.298Z,5.80
2023-02-24T17:01:21.074Z,7.63
2023-02-24T17:03:51.852Z,8.32
2023-02-24T17:06:22.323Z,5.78
2023-02-24T17:08:52.468Z,4.43
2023-02-24T17:11:22.199Z,6.63
2023-02-24T17:13:53.321Z,5.72
2023-02-24T17:16:21.573Z,5.50
2023-02-24T17:18:49.672Z,5.38
2023-02-24T17:21:18.862Z,6.43
2023-02-24T17:23:46.640Z,5.95
2023-02-24T17:26:16.712Z,8.05
2023-02-24T17:28:44.985Z,7.32
2023-02-24T17:31:12.907Z,8.23
2023-02-24T17:33:41.443Z,5.68
2023-02-24T17:36:09.470Z,7.60
2023-02-24T17:38:37.912Z,5.82
2023-02-24T17:41:06.911Z,5.68
2023-02-24T17:43:36.114Z,8.20
2023-02-24T17:46:07.009Z,6.93
2023-02-24T17:51:02.894Z,6.43
2023-02-24T17:53:31.146Z,6.93
2023-02-24T17:56:03.469Z,5.40
2023-02-24T17:58:31.666Z,4.30
2023-02-24T18:01:01.961Z,10.57
2023-02-24T18:03:30.524Z,5.03
2023-02-24T18:06:02.878Z,5.90
2023-02-24T18:08:31.416Z,4.82
2023-02-24T18:10:59.908Z,6.22
2023-02-24T18:13:28.668Z,6.20
2023-02-24T18:15:56.738Z,4.70
2023-02-24T18:18:26.932Z,7.35
2023-02-24T18:20:58.620Z,6.57
2023-02-24T18:23:26.574Z,6.35
2023-02-24T18:25:54.424Z,11.20
2023-02-24T18:28:22.379Z,5.00
2023-02-24T18:30:50.255Z,11.93
2023-02-24T18:33:18.346Z,3.45
2023-02-24T18:35:48.152Z,4.68
2023-02-24T18:38:17.601Z,7.95
2023-02-24T18:40:45.572Z,4.25
2023-02-24T18:43:13.426Z,5.75
2023-02-24T18:45:41.216Z,4.45
2023-02-24T18:48:09.112Z,5.97
2023-02-24T18:50:36.985Z,8.75
2023-02-24T18:53:06.254Z,4.05
2023-02-24T18:55:36.101Z,3.60
2023-02-24T18:58:03.874Z,6.90
2023-02-24T19:00:31.732Z,6.10
2023-02-24T19:02:59.607Z,7.38
2023-02-24T19:05:37.905Z,4.32
2023-02-24T19:08:07.873Z,5.35
2023-02-24T19:10:37.665Z,6.30
2023-02-24T19:13:06.891Z,6.50
2023-02-24T19:15:35.934Z,6.80
2023-02-24T19:18:03.848Z,5.43
2023-02-24T19:20:32.204Z,7.30
2023-02-24T19:23:01.328Z,5.72
2023-02-24T19:25:30.776Z,5.25
2023-02-24T19:27:58.687Z,8.15
2023-02-24T19:30:26.653Z,5.28
2023-02-24T19:32:54.640Z,6.65
2023-02-24T19:35:22.565Z,6.35
2023-02-24T19:37:50.388Z,1.65
2023-02-24T19:40:19.045Z,1.52
2023-02-24T19:42:51.068Z,2.08
2023-02-24T19:45:19.273Z,1.05
2023-02-24T19:47:47.632Z,1.30
2023-02-24T19:50:16.813Z,2.22
2023-02-24T19:52:44.656Z,2.13
2023-02-24T19:55:13.289Z,0.90
2023-02-24T19:57:41.143Z,1.90
2023-02-24T20:00:12.103Z,0.50
2023-02-24T20:02:40.340Z,2.85
2023-02-24T20:05:10.353Z,2.10
2023-02-24T20:07:38.669Z,1.00
2023-02-24T20:10:07.237Z,0.90
2023-02-24T20:12:35.094Z,0.52
2023-02-24T20:15:02.982Z,1.17
2023-02-24T20:17:34.035Z,0.40
2023-02-24T20:20:01.948Z,0.70
2023-02-24T20:22:29.914Z,0.85
2023-02-24T20:24:57.710Z,0.20
2023-02-24T20:27:25.537Z,0.80
2023-02-24T20:29:53.818Z,1.45
2023-02-24T20:32:21.761Z,0.75
2023-02-24T20:34:51.038Z,1.02
2023-02-24T20:37:18.918Z,0.85
2023-02-24T20:39:46.784Z,0.30
2023-02-24T20:42:15.073Z,0.70
2023-02-24T20:44:42.886Z,4.18
2023-02-24T20:47:10.976Z,0.30
2023-02-24T20:49:39.202Z,0.80
2023-02-24T20:52:08.403Z,0.90
2023-02-24T20:54:36.228Z,0.70
2023-02-24T20:57:04.127Z,0.50
2023-02-24T20:59:31.901Z,1.00
2023-02-24T21:02:00.241Z,0.47
2023-02-24T21:04:28.045Z,0.95
2023-02-24T21:06:56.706Z,0.73
2023-02-24T21:09:25.949Z,0.40
2023-02-24T21:11:53.810Z,0.50
2023-02-24T21:14:22.936Z,1.70
2023-02-24T21:16:50.748Z,0.70
2023-02-24T21:19:20.207Z,0.70
2023-02-24T21:21:49.321Z,0.70
2023-02-24T21:24:18.011Z,1.13
2023-02-24T21:26:47.592Z,1.13
2023-02-24T21:29:15.422Z,2.50
2023-02-24T21:31:43.665Z,0.93
2023-02-24T21:34:12.027Z,1.05
2023-02-24T21:36:40.038Z,0.57
2023-02-24T21:39:08.094Z,0.67
2023-02-24T21:41:36.315Z,0.30
2023-02-24T21:44:05.507Z,2.97
2023-02-24T21:46:33.494Z,0.60
2023-02-24T21:49:01.540Z,1.53
2023-02-24T21:51:29.881Z,3.13
2023-02-24T21:53:58.054Z,0.67
2023-02-24T21:56:27.962Z,0.93
2023-02-24T21:58:59.454Z,1.70
2023-02-24T22:01:30.972Z,0.60
2023-02-24T22:04:01.275Z,1.03
2023-02-24T22:06:31.773Z,0.40
2023-02-24T22:09:00.552Z,1.10
2023-02-24T22:11:30.552Z,0.40
2023-02-24T22:13:59.167Z,0.57
2023-02-24T22:16:28.892Z,0.50
2023-02-24T22:18:56.974Z,0.80
2023-02-24T22:21:27.494Z,1.20
2023-02-24T22:23:59.275Z,1.52
2023-02-24T22:26:28.454Z,1.70
2023-02-24T22:28:57.299Z,0.50
2023-02-24T22:31:27.279Z,0.60
2023-02-24T22:33:57.164Z,1.10
2023-02-24T22:36:27.388Z,0.70
2023-02-24T22:38:57.101Z,1.47
2023-02-24T22:41:28.614Z,0.82
2023-02-24T22:43:56.467Z,3.43
2023-02-24T22:46:26.467Z,2.07
2023-02-24T22:48:55.969Z,6.28
2023-02-24T22:51:24.909Z,4.60
2023-02-24T22:53:53.306Z,0.63
2023-02-24T22:56:23.610Z,0.87
2023-02-24T22:58:51.839Z,1.17
2023-02-24T23:01:21.849Z,1.60
2023-02-24T23:03:50.691Z,2.73
2023-02-24T23:06:23.025Z,1.13
2023-02-24T23:08:52.346Z,1.07
2023-02-24T23:11:24.712Z,0.67
2023-02-24T23:13:53.161Z,7.77
2023-02-24T23:16:23.978Z,0.90
2023-02-24T23:18:53.788Z,0.85
2023-02-24T23:21:25.499Z,2.20
2023-02-24T23:23:56.776Z,1.70
2023-02-24T23:26:28.849Z,1.57
2023-02-24T23:28:56.828Z,2.17
2023-02-24T23:31:24.825Z,2.40
2023-02-24T23:33:52.998Z,2.43
2023-02-24T23:36:23.082Z,2.97
2023-02-24T23:38:51.734Z,1.10
2023-02-24T23:41:19.632Z,0.83
2023-02-24T23:43:47.822Z,0.60
2023-02-24T23:46:16.033Z,1.90
2023-02-24T23:48:43.899Z,1.43
2023-02-24T23:51:14.621Z,2.33
2023-02-24T23:53:45.714Z,1.02
2023-02-24T23:58:43.291Z,1.13
